Time;durP1;ratioP1;P1;durP2;ratioP2;P2;SDS_P1;SDS_P2;PMS_P1;PMS_P2;Temp;Humidity;BMP_temperature;BMP_pressure;BME280_temperature;BME280_humidity;BME280_pressure;Samples;Min_cycle;Max_cycle;Signal;HPM_P1;HPM_P2
2023/11/27 00:01:12;;;;;;;30.75;14.38;;;5.60;99.90;;;;;;5060395;28;20025;-73
2023/11/27 00:03:38;;;;;;;33.38;14.70;;;5.60;99.90;;;;;;5060360;28;20017;-73
2023/11/27 00:06:06;;;;;;;27.58;13.98;;;5.60;99.90;;;;;;5062156;28;20035;-72
2023/11/27 00:08:32;;;;;;;32.85;15.02;;;5.60;99.90;;;;;;5060550;28;20020;-73
2023/11/27 00:10:59;;;;;;;32.85;15.02;;;5.60;99.90;;;;;;5061513;28;20021;-72
2023/11/27 00:13:24;;;;;;;31.45;14.50;;;5.60;99.90;;;;;;5060695;28;20056;-73
2023/11/27 00:15:50;;;;;;;34.33;15.18;;;5.60;99.90;;;;;;5061434;28;20029;-73
2023/11/27 00:18:16;;;;;;;37.90;15.20;;;5.60;99.90;;;;;;5060309;28;20040;-75
2023/11/27 00:20:42;;;;;;;29.02;15.00;;;5.60;99.90;;;;;;5061623;28;20036;-73
2023/11/27 00:23:09;;;;;;;34.30;14.90;;;5.60;99.90;;;;;;5061512;28;20017;-74
2023/11/27 00:25:35;;;;;;;30.33;14.48;;;5.60;99.90;;;;;;5061397;28;20037;-73
2023/11/27 00:28:01;;;;;;;29.02;14.38;;;5.60;99.90;;;;;;5060191;28;20033;-73
2023/11/27 00:30:28;;;;;;;29.85;14.27;;;5.50;99.90;;;;;;5060402;28;20025;-73
2023/11/27 00:32:54;;;;;;;33.33;14.73;;;5.60;99.90;;;;;;5061778;28;20056;-74
2023/11/27 00:35:19;;;;;;;30.27;14.95;;;5.60;99.90;;;;;;5061377;28;20108;-73
2023/11/27 00:37:45;;;;;;;30.40;14.00;;;5.70;99.90;;;;;;5061091;28;20065;-73
2023/11/27 00:40:11;;;;;;;33.10;15.32;;;5.60;99.90;;;;;;5061291;28;20599;-73
2023/11/27 00:42:36;;;;;;;29.20;14.68;;;5.60;99.90;;;;;;5061066;28;20056;-72
2023/11/27 00:45:02;;;;;;;28.50;14.10;;;5.60;99.90;;;;;;5061047;28;20021;-74
2023/11/27 00:47:28;;;;;;;29.08;13.93;;;5.60;99.90;;;;;;5061399;28;20488;-72
2023/11/27 00:49:53;;;;;;;33.72;14.30;;;5.60;99.90;;;;;;5060189;28;20028;-73
2023/11/27 00:52:19;;;;;;;29.30;13.80;;;5.60;99.90;;;;;;5061332;28;20036;-72
2023/11/27 00:54:45;;;;;;;31.58;14.55;;;5.60;99.90;;;;;;5059869;28;20126;-72
2023/11/27 00:57:10;;;;;;;29.92;12.82;;;5.60;99.90;;;;;;5060986;28;20091;-72
2023/11/27 00:59:40;;;;;;;30.98;13.75;;;5.60;99.90;;;;;;5061055;28;20045;-72
2023/11/27 01:02:06;;;;;;;27.27;12.52;;;5.60;99.90;;;;;;5058560;28;20113;-74
2023/11/27 01:04:31;;;;;;;28.13;13.38;;;5.60;99.90;;;;;;5059384;28;20067;-73
2023/11/27 01:06:57;;;;;;;31.23;13.75;;;5.60;99.90;;;;;;5061426;28;20017;-73
2023/11/27 01:09:24;;;;;;;29.85;12.35;;;5.60;99.90;;;;;;5060048;28;20025;-72
2023/11/27 01:11:49;;;;;;;25.80;13.05;;;5.60;99.90;;;;;;5058968;28;20037;-73
2023/11/27 01:14:15;;;;;;;26.27;13.15;;;5.50;99.90;;;;;;5061257;28;20095;-73
2023/11/27 01:16:41;;;;;;;29.13;12.77;;;5.60;99.90;;;;;;5059825;28;20033;-73
2023/11/27 01:19:08;;;;;;;29.40;13.23;;;5.60;99.90;;;;;;5059238;28;20041;-73
2023/11/27 01:21:33;;;;;;;28.88;12.65;;;5.60;99.90;;;;;;5059213;28;20084;-73
2023/11/27 01:23:59;;;;;;;27.77;13.15;;;5.60;99.90;;;;;;5060942;28;20028;-73
2023/11/27 01:26:25;;;;;;;31.15;13.25;;;5.60;99.90;;;;;;5060892;28;20053;-74
2023/11/27 01:28:50;;;;;;;28.17;13.55;;;5.60;99.90;;;;;;5058921;28;20025;-73
2023/11/27 01:31:17;;;;;;;28.42;13.23;;;5.60;99.90;;;;;;5060376;28;20082;-72
2023/11/27 01:33:42;;;;;;;26.85;12.90;;;5.60;99.90;;;;;;5059432;28;20025;-72
2023/11/27 01:36:08;;;;;;;27.70;12.88;;;5.60;99.90;;;;;;5060516;28;20064;-72
2023/11/27 01:38:34;;;;;;;29.67;12.70;;;5.60;99.90;;;;;;5059568;28;20390;-72
2023/11/27 01:41:00;;;;;;;29.52;13.20;;;5.60;99.90;;;;;;5058485;28;20091;-74
2023/11/27 01:43:25;;;;;;;28.08;13.10;;;5.60;99.90;;;;;;5060241;28;20021;-72
2023/11/27 01:46:14;;;;;;;26.77;13.07;;;5.60;99.90;;;;;;5060389;28;20061;-72
2023/11/27 01:48:40;;;;;;;31.40;13.52;;;5.60;99.90;;;;;;5058410;28;20044;-72
2023/11/27 01:51:08;;;;;;;32.40;13.98;;;5.60;99.90;;;;;;5059871;28;20045;-72
2023/11/27 01:53:34;;;;;;;27.38;12.57;;;5.60;99.90;;;;;;5059355;28;20116;-72
2023/11/27 01:55:59;;;;;;;27.77;13.20;;;5.60;99.90;;;;;;5060280;28;20025;-72
2023/11/27 01:58:25;;;;;;;28.80;13.88;;;5.60;99.90;;;;;;5060083;28;20063;-74
2023/11/27 02:00:52;;;;;;;31.77;13.38;;;5.60;99.90;;;;;;5059046;28;20017;-73
2023/11/27 02:03:18;;;;;;;29.80;13.07;;;5.60;99.90;;;;;;5058652;28;20596;-73
2023/11/27 02:05:43;;;;;;;31.42;14.02;;;5.60;99.90;;;;;;5060207;28;20078;-72
2023/11/27 02:08:10;;;;;;;31.05;13.35;;;5.60;99.90;;;;;;5059468;28;20021;-73
2023/11/27 02:10:35;;;;;;;29.40;12.82;;;5.60;99.90;;;;;;5060396;28;20024;-74
2023/11/27 02:13:01;;;;;;;28.88;13.00;;;5.60;99.90;;;;;;5060185;28;20366;-73
2023/11/27 02:15:27;;;;;;;24.65;12.43;;;5.60;99.90;;;;;;5062492;28;20039;-73
2023/11/27 02:17:53;;;;;;;28.00;12.40;;;5.60;99.90;;;;;;5062005;28;20064;-74
2023/11/27 02:20:19;;;;;;;28.17;12.73;;;5.60;99.90;;;;;;5063783;28;20116;-73
2023/11/27 02:22:45;;;;;;;27.77;13.00;;;5.60;99.90;;;;;;5063155;28;20025;-73
2023/11/27 02:25:11;;;;;;;27.88;12.65;;;5.60;99.90;;;;;;5063341;28;20037;-72
2023/11/27 02:27:38;;;;;;;25.83;13.15;;;5.60;99.90;;;;;;5062108;28;20076;-73
2023/11/27 02:30:04;;;;;;;30.83;13.55;;;5.60;99.90;;;;;;5061794;28;20028;-73
2023/11/27 02:32:31;;;;;;;27.80;12.25;;;5.60;99.90;;;;;;5063265;28;20033;-73
2023/11/27 02:34:57;;;;;;;29.98;13.57;;;5.60;99.90;;;;;;5062264;28;20047;-74
2023/11/27 02:37:23;;;;;;;26.00;11.80;;;5.60;99.90;;;;;;5062710;28;20037;-74
2023/11/27 02:39:49;;;;;;;27.30;12.82;;;5.50;99.90;;;;;;5063558;28;20020;-73
2023/11/27 02:42:15;;;;;;;30.08;13.63;;;5.60;99.90;;;;;;5062030;28;20044;-73
2023/11/27 02:44:40;;;;;;;30.83;13.80;;;5.50;99.90;;;;;;5061160;28;20070;-72
2023/11/27 02:47:06;;;;;;;34.30;15.00;;;5.60;99.90;;;;;;5060831;28;20031;-72
2023/11/27 02:49:31;;;;;;;37.58;15.27;;;5.50;99.90;;;;;;5062481;28;20025;-73
2023/11/27 02:51:57;;;;;;;35.03;15.60;;;5.50;99.90;;;;;;5062770;28;20441;-74
2023/11/27 02:54:23;;;;;;;36.25;15.05;;;5.50;99.90;;;;;;5062629;28;20036;-73
2023/11/27 02:56:48;;;;;;;32.55;15.23;;;5.40;99.90;;;;;;5062165;28;20044;-73
2023/11/27 02:59:14;;;;;;;39.72;15.80;;;5.50;99.90;;;;;;5062713;28;20100;-73
2023/11/27 03:01:40;;;;;;;32.42;14.80;;;5.50;99.90;;;;;;5061290;28;20657;-72
2023/11/27 03:04:07;;;;;;;32.45;13.75;;;5.50;99.90;;;;;;5062519;28;20025;-74
2023/11/27 03:06:32;;;;;;;33.55;15.05;;;5.40;99.90;;;;;;5060806;28;20021;-73
2023/11/27 03:08:58;;;;;;;32.90;14.82;;;5.40;99.90;;;;;;5062836;28;20370;-72
2023/11/27 03:11:23;;;;;;;39.05;14.77;;;5.40;99.90;;;;;;5062406;28;20021;-73
2023/11/27 03:13:49;;;;;;;37.80;15.20;;;5.40;99.90;;;;;;5062436;28;20021;-73
2023/11/27 03:16:15;;;;;;;36.22;15.65;;;5.40;99.90;;;;;;5061870;28;20472;-73
2023/11/27 03:18:41;;;;;;;38.90;16.45;;;5.40;99.90;;;;;;5062228;28;20060;-72
2023/11/27 03:21:07;;;;;;;39.58;16.10;;;5.50;99.90;;;;;;5062025;28;20033;-72
2023/11/27 03:23:33;;;;;;;37.72;14.88;;;5.40;99.90;;;;;;5062419;28;20023;-73
2023/11/27 03:26:03;;;;;;;38.88;15.25;;;5.40;99.90;;;;;;5060498;28;20044;-72
2023/11/27 03:28:29;;;;;;;37.53;16.02;;;5.40;99.90;;;;;;5061831;28;20021;-72
2023/11/27 03:30:55;;;;;;;40.05;17.30;;;5.40;99.90;;;;;;5062257;28;20374;-73
2023/11/27 03:33:22;;;;;;;41.22;16.38;;;5.40;99.90;;;;;;5062169;28;20033;-73
2023/11/27 03:35:48;;;;;;;40.97;16.58;;;5.40;99.90;;;;;;5062229;28;20025;-73
2023/11/27 03:38:13;;;;;;;37.25;15.27;;;5.40;99.90;;;;;;5061002;28;20098;-72
2023/11/27 03:40:39;;;;;;;40.70;16.13;;;5.40;99.90;;;;;;5059687;28;20389;-72
2023/11/27 03:43:04;;;;;;;43.15;16.08;;;5.40;99.90;;;;;;5061594;28;20040;-72
2023/11/27 03:45:30;;;;;;;35.00;15.18;;;5.40;99.90;;;;;;5061663;28;20070;-74
2023/11/27 03:47:56;;;;;;;44.35;16.73;;;5.40;99.90;;;;;;5059826;28;20033;-73
2023/11/27 03:50:23;;;;;;;42.22;17.95;;;5.40;99.90;;;;;;5061376;28;20079;-72
2023/11/27 03:52:49;;;;;;;58.65;21.92;;;5.40;99.90;;;;;;5059641;28;20522;-74
2023/11/27 03:55:14;;;;;;;49.10;19.42;;;5.40;99.90;;;;;;5059213;28;20035;-71
2023/11/27 03:57:41;;;;;;;59.80;22.27;;;5.40;99.90;;;;;;5058435;28;20053;-72
2023/11/27 04:00:09;;;;;;;64.78;24.77;;;5.40;99.90;;;;;;5057690;28;20028;-72
2023/11/27 04:02:34;;;;;;;76.47;25.67;;;5.40;99.90;;;;;;5060233;28;20465;-74
2023/11/27 04:05:01;;;;;;;78.90;27.58;;;5.40;99.90;;;;;;5059966;28;20024;-73
2023/11/27 04:07:27;;;;;;;78.88;28.20;;;5.40;99.90;;;;;;5060836;28;20024;-73
2023/11/27 04:09:52;;;;;;;106.38;31.55;;;5.40;99.90;;;;;;5060870;28;20039;-74
2023/11/27 04:12:18;;;;;;;97.18;32.90;;;5.40;99.90;;;;;;5059379;28;20025;-73
2023/11/27 04:14:44;;;;;;;98.32;36.30;;;5.40;99.90;;;;;;5060900;28;20033;-70
2023/11/27 04:17:09;;;;;;;119.10;40.15;;;5.40;99.90;;;;;;5059955;28;20132;-73
2023/11/27 04:19:35;;;;;;;117.55;38.88;;;5.40;99.90;;;;;;5060632;28;20145;-72
2023/11/27 04:22:02;;;;;;;117.82;39.17;;;5.40;99.90;;;;;;5060969;28;20058;-74
2023/11/27 04:24:28;;;;;;;114.78;41.30;;;5.40;99.90;;;;;;5059963;28;20037;-73
2023/11/27 04:26:54;;;;;;;115.43;41.33;;;5.30;99.90;;;;;;5061068;28;20017;-74
2023/11/27 04:29:20;;;;;;;120.50;40.08;;;5.30;99.90;;;;;;5060675;28;20543;-74
2023/11/27 04:31:45;;;;;;;115.15;41.55;;;5.30;99.90;;;;;;5059931;28;20029;-74
2023/11/27 04:34:11;;;;;;;112.32;41.58;;;5.30;99.90;;;;;;5060608;28;20516;-73
2023/11/27 04:36:37;;;;;;;115.47;40.97;;;5.30;99.90;;;;;;5059597;28;20037;-74
2023/11/27 04:39:03;;;;;;;118.00;42.17;;;5.30;99.90;;;;;;5060249;28;20029;-73
2023/11/27 04:41:29;;;;;;;116.28;43.15;;;5.30;99.90;;;;;;5059836;28;20074;-74
2023/11/27 04:43:55;;;;;;;120.40;40.25;;;5.30;99.90;;;;;;5059357;28;20067;-75
2023/11/27 04:46:20;;;;;;;122.03;42.85;;;5.30;99.90;;;;;;5059243;28;20037;-74
2023/11/27 04:48:46;;;;;;;113.90;42.88;;;5.20;99.90;;;;;;5060081;28;20041;-73
2023/11/27 04:51:12;;;;;;;118.95;42.72;;;5.20;99.90;;;;;;5059392;28;20505;-74
2023/11/27 04:53:37;;;;;;;128.38;43.45;;;5.30;99.90;;;;;;5059018;28;20564;-74
2023/11/27 04:56:03;;;;;;;119.88;42.92;;;5.20;99.90;;;;;;5058789;28;20039;-75
2023/11/27 04:58:29;;;;;;;114.68;42.60;;;5.20;99.90;;;;;;5059115;28;20044;-75
2023/11/27 05:00:54;;;;;;;121.22;42.78;;;5.20;99.90;;;;;;5059959;28;20021;-76
2023/11/27 05:03:20;;;;;;;117.60;42.90;;;5.20;99.90;;;;;;5059044;28;20111;-74
2023/11/27 05:05:46;;;;;;;115.07;40.72;;;5.20;99.90;;;;;;5059406;28;20068;-73
2023/11/27 05:08:11;;;;;;;117.80;41.30;;;5.30;99.90;;;;;;5060139;28;20129;-75
2023/11/27 05:10:39;;;;;;;120.47;42.47;;;5.30;99.90;;;;;;5059765;28;20056;-73
2023/11/27 05:13:05;;;;;;;123.88;41.88;;;5.30;99.90;;;;;;5058991;28;20029;-75
2023/11/27 05:15:31;;;;;;;113.72;42.00;;;5.30;99.90;;;;;;5059829;28;20450;-74
2023/11/27 05:17:57;;;;;;;121.55;43.47;;;5.30;99.90;;;;;;5059620;28;20036;-75
2023/11/27 05:20:23;;;;;;;113.80;42.58;;;5.30;99.90;;;;;;5060018;28;20025;-74
2023/11/27 05:22:48;;;;;;;122.93;44.80;;;5.30;99.90;;;;;;5059793;28;20108;-76
2023/11/27 05:25:14;;;;;;;121.25;43.08;;;5.20;99.90;;;;;;5060008;28;20048;-73
2023/11/27 05:27:39;;;;;;;116.40;43.28;;;5.20;99.90;;;;;;5058837;28;20060;-74
2023/11/27 05:30:06;;;;;;;115.10;43.10;;;5.20;99.90;;;;;;5059353;28;20112;-73
2023/11/27 05:32:32;;;;;;;103.10;40.42;;;5.20;99.90;;;;;;5059369;28;20493;-74
2023/11/27 05:34:57;;;;;;;112.90;42.03;;;5.20;99.90;;;;;;5060604;28;20024;-73
2023/11/27 05:37:23;;;;;;;98.63;38.42;;;5.20;99.90;;;;;;5059432;28;20052;-75
2023/11/27 05:39:49;;;;;;;97.70;39.00;;;5.20;99.90;;;;;;5059437;28;20021;-74
2023/11/27 05:42:19;;;;;;;107.15;39.35;;;5.20;99.90;;;;;;5057571;28;20053;-73
2023/11/27 05:44:44;;;;;;;106.22;40.28;;;5.20;99.90;;;;;;5058756;28;20108;-73
2023/11/27 05:47:11;;;;;;;106.57;40.58;;;5.20;99.90;;;;;;5060101;28;20029;-75
2023/11/27 05:49:38;;;;;;;108.68;38.92;;;5.10;99.90;;;;;;5063518;28;20024;-72
2023/11/27 05:52:04;;;;;;;117.43;41.58;;;5.10;99.90;;;;;;5063508;28;20024;-72
2023/11/27 05:54:30;;;;;;;104.38;40.25;;;5.10;99.90;;;;;;5064245;28;20029;-73
2023/11/27 05:56:55;;;;;;;110.38;40.08;;;5.10;99.90;;;;;;5064588;28;20040;-74
2023/11/27 05:59:21;;;;;;;102.30;39.95;;;5.10;99.90;;;;;;5061575;28;21276;-71
2023/11/27 06:01:47;;;;;;;108.38;38.50;;;5.10;99.90;;;;;;5063908;28;20043;-71
2023/11/27 06:04:12;;;;;;;104.45;38.00;;;5.10;99.90;;;;;;5064437;28;20021;-71
2023/11/27 06:06:38;;;;;;;102.57;40.38;;;5.10;99.90;;;;;;5062705;28;20029;-72
2023/11/27 06:09:04;;;;;;;106.82;40.13;;;5.10;99.90;;;;;;5063959;28;20485;-73
2023/11/27 06:11:30;;;;;;;94.97;36.40;;;5.10;99.90;;;;;;5062874;28;20025;-74
2023/11/27 06:13:56;;;;;;;99.32;38.85;;;5.10;99.90;;;;;;5062698;28;20021;-74
2023/11/27 06:16:25;;;;;;;100.72;39.00;;;5.10;99.90;;;;;;5063049;28;20055;-74
2023/11/27 06:18:51;;;;;;;99.82;40.60;;;5.00;99.90;;;;;;5062102;28;20037;-73
2023/11/27 06:21:17;;;;;;;106.25;39.63;;;5.10;99.90;;;;;;5062250;28;20067;-75
2023/11/27 06:23:42;;;;;;;104.80;40.20;;;5.10;99.90;;;;;;5057935;28;20059;-74
2023/11/27 06:26:12;;;;;;;95.95;37.70;;;5.10;99.90;;;;;;5063036;28;20068;-74
2023/11/27 06:28:38;;;;;;;99.40;38.80;;;5.00;99.90;;;;;;5062120;28;20041;-74
2023/11/27 06:31:03;;;;;;;95.78;33.97;;;5.00;99.90;;;;;;5063891;28;20040;-71
2023/11/27 06:33:29;;;;;;;99.90;38.10;;;5.00;99.90;;;;;;5060502;28;20027;-74
2023/11/27 06:35:55;;;;;;;85.60;34.75;;;5.00;99.90;;;;;;5063325;28;20021;-73
2023/11/27 06:38:20;;;;;;;93.75;36.15;;;5.00;99.90;;;;;;5063888;28;20045;-73
2023/11/27 06:40:49;;;;;;;86.55;34.38;;;5.00;99.90;;;;;;5063113;28;20111;-73
2023/11/27 06:43:15;;;;;;;85.75;33.88;;;5.00;99.90;;;;;;5060783;28;20539;-75
2023/11/27 06:45:41;;;;;;;75.90;33.45;;;4.90;99.90;;;;;;5062342;28;20128;-72
2023/11/27 06:48:06;;;;;;;84.55;33.25;;;4.90;99.90;;;;;;5063326;28;20032;-74
2023/11/27 06:50:32;;;;;;;71.88;31.40;;;4.90;99.90;;;;;;5063311;28;20048;-73
2023/11/27 06:52:57;;;;;;;76.45;30.75;;;4.90;99.90;;;;;;5060777;28;20032;-74
2023/11/27 06:55:23;;;;;;;72.53;31.77;;;4.90;99.90;;;;;;5061206;28;20079;-75
2023/11/27 06:57:49;;;;;;;77.50;31.08;;;4.90;99.90;;;;;;5062947;28;20044;-74
2023/11/27 07:00:15;;;;;;;77.45;31.75;;;4.90;99.90;;;;;;5060699;28;20596;-75
2023/11/27 07:02:41;;;;;;;72.75;30.90;;;4.90;99.90;;;;;;5057844;28;20021;-74
2023/11/27 07:05:07;;;;;;;79.78;31.13;;;4.90;99.90;;;;;;5063178;28;20021;-75
2023/11/27 07:07:32;;;;;;;76.88;31.20;;;4.90;99.90;;;;;;5063183;28;20032;-75
2023/11/27 07:09:58;;;;;;;86.13;34.15;;;4.90;99.90;;;;;;5062383;28;20032;-74
2023/11/27 07:12:23;;;;;;;84.30;32.78;;;4.90;99.90;;;;;;5062275;28;20061;-74
2023/11/27 07:14:49;;;;;;;81.90;33.95;;;4.90;99.90;;;;;;5061942;28;20027;-76
2023/11/27 07:17:15;;;;;;;79.85;33.50;;;4.90;99.90;;;;;;5060866;28;20036;-74
2023/11/27 07:19:42;;;;;;;90.00;33.92;;;4.90;99.90;;;;;;5062311;28;20025;-75
2023/11/27 07:22:08;;;;;;;86.68;34.35;;;4.90;99.90;;;;;;5061870;28;20017;-74
2023/11/27 07:24:33;;;;;;;81.65;34.17;;;4.80;99.90;;;;;;5060449;28;20517;-74
2023/11/27 07:26:59;;;;;;;85.80;34.80;;;4.90;99.90;;;;;;5061168;28;20021;-75
2023/11/27 07:29:27;;;;;;;89.07;32.17;;;4.80;99.90;;;;;;5060926;28;20051;-74
2023/11/27 07:31:53;;;;;;;83.38;33.25;;;4.80;99.90;;;;;;5061216;28;20094;-74
2023/11/27 07:34:22;;;;;;;94.35;35.28;;;4.80;99.90;;;;;;5058673;28;20033;-74
2023/11/27 07:36:48;;;;;;;76.72;32.75;;;4.80;99.90;;;;;;5060966;28;20017;-74
2023/11/27 07:39:16;;;;;;;79.82;32.42;;;4.90;99.90;;;;;;5062101;28;20099;-74
2023/11/27 07:41:45;;;;;;;79.07;32.85;;;4.80;99.90;;;;;;5059245;28;20098;-74
2023/11/27 07:44:15;;;;;;;83.78;32.33;;;4.90;99.90;;;;;;5060031;28;20025;-74
2023/11/27 07:46:41;;;;;;;70.28;29.85;;;4.80;99.90;;;;;;5057681;28;20078;-72
2023/11/27 07:49:08;;;;;;;77.22;30.77;;;4.70;99.90;;;;;;5062363;28;20520;-73
2023/11/27 07:51:34;;;;;;;70.95;30.20;;;4.80;99.90;;;;;;5058981;28;20404;-74
2023/11/27 07:54:01;;;;;;;57.95;26.25;;;4.80;99.90;;;;;;5061684;28;20054;-73
2023/11/27 07:56:28;;;;;;;67.80;29.95;;;4.80;99.90;;;;;;5061288;28;20156;-74
2023/11/27 07:59:03;;;;;;;76.90;29.27;;;4.80;99.90;;;;;;5060130;28;20033;-74
2023/11/27 08:01:31;;;;;;;64.40;27.45;;;4.80;99.90;;;;;;5057716;28;20120;-74
2023/11/27 08:03:57;;;;;;;71.13;29.63;;;4.80;99.90;;;;;;5058742;28;20037;-75
2023/11/27 08:06:25;;;;;;;65.45;27.67;;;4.70;99.90;;;;;;5051813;28;20041;-74
2023/11/27 08:08:53;;;;;;;68.32;30.00;;;4.70;99.90;;;;;;5060477;28;20479;-74
2023/11/27 08:11:32;;;;;;;80.88;29.73;;;4.70;99.90;;;;;;5058633;28;20501;-74
2023/11/27 08:13:58;;;;;;;60.60;25.90;;;4.70;99.90;;;;;;5059711;28;20053;-73
2023/11/27 08:16:29;;;;;;;61.10;26.90;;;4.70;99.90;;;;;;5057430;28;20056;-75
2023/11/27 08:18:54;;;;;;;67.18;27.35;;;4.70;99.90;;;;;;5058895;28;20037;-76
2023/11/27 08:21:20;;;;;;;69.75;28.55;;;4.70;99.90;;;;;;5060298;28;20047;-74
2023/11/27 08:24:17;;;;;;;71.10;28.35;;;4.60;99.90;;;;;;5056116;28;20059;-73
2023/11/27 08:26:49;;;;;;;70.85;28.88;;;4.60;99.90;;;;;;5056947;28;20063;-73
2023/11/27 08:29:15;;;;;;;73.03;27.15;;;4.60;99.90;;;;;;5056980;28;20094;-73
2023/11/27 08:31:42;;;;;;;76.47;30.25;;;4.60;99.90;;;;;;5058569;28;20087;-73
2023/11/27 08:34:17;;;;;;;75.90;31.90;;;4.60;99.90;;;;;;5059466;28;20029;-73
2023/11/27 08:36:43;;;;;;;79.85;30.42;;;4.60;99.90;;;;;;5057252;28;20025;-71
2023/11/27 08:39:11;;;;;;;75.38;30.10;;;4.60;99.90;;;;;;5056561;28;20037;-72
2023/11/27 08:41:37;;;;;;;73.72;30.13;;;4.60;99.90;;;;;;5059968;28;20056;-72
2023/11/27 08:44:08;;;;;;;68.72;27.17;;;4.60;99.90;;;;;;5058974;28;20021;-71
2023/11/27 08:46:35;;;;;;;67.65;27.67;;;4.60;99.90;;;;;;5058735;28;20021;-71
2023/11/27 08:49:03;;;;;;;72.63;29.92;;;4.50;99.90;;;;;;5061134;28;20017;-72
2023/11/27 08:51:30;;;;;;;71.70;25.95;;;4.50;99.90;;;;;;5058079;28;20024;-72
2023/11/27 08:53:55;;;;;;;67.90;29.50;;;4.50;99.90;;;;;;5057613;28;20423;-73
2023/11/27 08:56:21;;;;;;;83.53;31.05;;;4.50;99.90;;;;;;5057415;28;20029;-71
2023/11/27 08:58:49;;;;;;;81.32;31.48;;;4.50;99.90;;;;;;5057142;28;20041;-72
2023/11/27 09:01:16;;;;;;;77.30;30.15;;;4.50;99.90;;;;;;5058114;28;20064;-72
2023/11/27 09:03:42;;;;;;;77.32;29.17;;;4.50;99.90;;;;;;5058769;28;20032;-71
2023/11/27 09:06:19;;;;;;;70.43;28.95;;;4.50;99.90;;;;;;5059277;28;20031;-72
2023/11/27 09:08:45;;;;;;;68.55;25.73;;;4.50;99.90;;;;;;5057847;28;20193;-70
2023/11/27 09:11:11;;;;;;;61.47;24.25;;;4.50;99.90;;;;;;5055935;28;20095;-72
2023/11/27 09:13:37;;;;;;;66.50;27.00;;;4.50;99.90;;;;;;5059178;28;20021;-71
2023/11/27 09:16:04;;;;;;;70.00;27.00;;;4.50;99.90;;;;;;5057095;28;20114;-72
2023/11/27 09:18:31;;;;;;;70.75;28.25;;;4.50;99.90;;;;;;5055974;28;20061;-74
2023/11/27 09:20:57;;;;;;;77.50;30.88;;;4.50;99.90;;;;;;5059007;28;20036;-73
2023/11/27 09:23:22;;;;;;;85.18;31.55;;;4.50;99.90;;;;;;5062343;28;20032;-73
2023/11/27 09:25:48;;;;;;;78.82;30.30;;;4.50;99.90;;;;;;5064387;28;20056;-72
2023/11/27 09:28:14;;;;;;;75.68;31.40;;;4.50;99.90;;;;;;5063461;28;20434;-73
2023/11/27 09:30:39;;;;;;;71.43;28.10;;;4.50;99.90;;;;;;5064148;28;20080;-72
2023/11/27 09:33:05;;;;;;;68.38;27.67;;;4.50;99.90;;;;;;5063141;28;20025;-72
2023/11/27 09:35:31;;;;;;;71.28;29.77;;;4.50;99.90;;;;;;5060863;28;20024;-73
2023/11/27 09:37:57;;;;;;;60.42;24.00;;;4.50;99.90;;;;;;5059859;28;20049;-69
2023/11/27 09:40:33;;;;;;;67.68;29.98;;;4.50;99.90;;;;;;5059993;28;20039;-73
2023/11/27 09:43:08;;;;;;;78.07;29.58;;;4.50;99.90;;;;;;5063682;28;20049;-73
2023/11/27 09:45:35;;;;;;;70.10;27.67;;;4.50;99.90;;;;;;5059380;28;20033;-70
2023/11/27 09:48:04;;;;;;;73.72;30.27;;;4.50;99.90;;;;;;5059460;28;20078;-73
2023/11/27 09:50:31;;;;;;;69.60;29.85;;;4.60;99.90;;;;;;5060394;28;20044;-72
2023/11/27 09:53:05;;;;;;;68.28;25.52;;;4.60;99.90;;;;;;5060113;28;20041;-72
2023/11/27 09:55:39;;;;;;;73.75;30.35;;;4.50;99.90;;;;;;5060952;28;20044;-73
2023/11/27 09:58:08;;;;;;;68.53;27.67;;;4.50;99.90;;;;;;5062747;28;20032;-72
2023/11/27 10:00:35;;;;;;;66.28;26.02;;;4.50;99.90;;;;;;5060143;28;20409;-72
2023/11/27 10:03:02;;;;;;;60.30;27.90;;;4.60;99.90;;;;;;5058366;28;20025;-74
2023/11/27 10:05:31;;;;;;;65.40;25.02;;;4.50;99.90;;;;;;5060136;28;20025;-72
2023/11/27 10:07:58;;;;;;;58.63;24.38;;;4.60;99.90;;;;;;5062531;28;20013;-71
2023/11/27 10:10:28;;;;;;;66.38;27.33;;;4.60;99.90;;;;;;5063951;28;20041;-72
2023/11/27 10:12:59;;;;;;;63.95;26.30;;;4.50;99.90;;;;;;5063600;28;20405;-72
2023/11/27 10:15:30;;;;;;;53.42;21.65;;;4.60;99.90;;;;;;5062527;28;20434;-70
2023/11/27 10:17:59;;;;;;;63.25;24.48;;;4.50;99.90;;;;;;5063378;28;20033;-73
2023/11/27 10:20:26;;;;;;;62.25;25.75;;;4.50;99.90;;;;;;5063049;28;20134;-73
2023/11/27 10:22:52;;;;;;;56.67;23.83;;;4.60;99.90;;;;;;5061412;28;20483;-73
2023/11/27 10:25:23;;;;;;;55.22;23.65;;;4.60;99.90;;;;;;5062587;28;20160;-72
2023/11/27 10:27:56;;;;;;;68.88;27.10;;;4.60;99.90;;;;;;5063534;28;20032;-73
2023/11/27 10:30:27;;;;;;;56.03;23.67;;;4.60;99.90;;;;;;5061038;28;20070;-71
2023/11/27 10:32:54;;;;;;;63.58;24.55;;;4.60;99.90;;;;;;5063005;28;20039;-71
2023/11/27 10:35:24;;;;;;;69.68;28.83;;;4.60;99.90;;;;;;5061554;28;20025;-72
2023/11/27 10:37:50;;;;;;;66.90;27.27;;;4.60;99.90;;;;;;5062914;28;20037;-72
2023/11/27 10:40:17;;;;;;;66.70;25.42;;;4.60;99.90;;;;;;5059902;28;20029;-72
2023/11/27 10:42:47;;;;;;;61.97;25.70;;;4.60;99.90;;;;;;5058068;28;20049;-72
2023/11/27 10:45:18;;;;;;;59.42;23.90;;;4.60;99.90;;;;;;5055865;28;21477;-71
2023/11/27 10:47:46;;;;;;;55.83;23.88;;;4.60;99.90;;;;;;5056287;28;20028;-71
2023/11/27 10:50:25;;;;;;;61.90;25.13;;;4.60;99.90;;;;;;5058398;28;20032;-73
2023/11/27 10:52:52;;;;;;;55.30;23.13;;;4.60;99.90;;;;;;5060595;28;20080;-72
2023/11/27 10:55:19;;;;;;;54.08;21.85;;;4.60;99.90;;;;;;5062823;28;20033;-71
2023/11/27 10:57:48;;;;;;;56.90;23.58;;;4.60;99.90;;;;;;5059381;28;20160;-72
2023/11/27 11:00:27;;;;;;;53.55;21.77;;;4.60;99.90;;;;;;5062053;28;20086;-71
2023/11/27 11:03:01;;;;;;;57.75;24.50;;;4.60;99.90;;;;;;5059055;28;20025;-75
2023/11/27 11:05:42;;;;;;;58.97;24.42;;;4.60;99.90;;;;;;5060124;28;20036;-72
2023/11/27 11:08:10;;;;;;;55.95;24.30;;;4.60;99.90;;;;;;5074181;28;20028;-72
2023/11/27 11:10:40;;;;;;;56.47;21.35;;;4.60;99.90;;;;;;5060978;28;20428;-70
2023/11/27 11:13:12;;;;;;;59.88;23.58;;;4.60;99.90;;;;;;5054541;28;20080;-73
2023/11/27 11:16:00;;;;;;;62.80;22.88;;;4.60;99.90;;;;;;5057880;28;20113;-71
2023/11/27 11:18:45;;;;;;;49.78;20.48;;;4.60;99.90;;;;;;5059095;28;20040;-71
2023/11/27 11:21:19;;;;;;;;;;;4.60;99.90;;;;;;5060149;28;20036;-70
2023/11/27 11:24:01;;;;;;;35.97;15.52;;;4.60;99.90;;;;;;5061051;28;21195;-71
2023/11/27 11:27:01;;;;;;;38.78;14.55;;;4.50;99.90;;;;;;5060343;28;20041;-73
2023/11/27 11:29:32;;;;;;;37.17;17.13;;;4.50;99.90;;;;;;5061452;28;20021;-73
2023/11/27 11:32:08;;;;;;;39.83;18.45;;;4.50;99.90;;;;;;5059190;28;20041;-74
2023/11/27 11:35:02;;;;;;;43.00;18.75;;;4.50;99.90;;;;;;5060941;28;20033;-76
2023/11/27 11:37:33;;;;;;;43.83;19.20;;;4.40;99.90;;;;;;5061694;28;20045;-71
2023/11/27 11:40:00;;;;;;;41.63;19.15;;;4.50;99.90;;;;;;5061766;28;20036;-74
2023/11/27 11:42:32;;;;;;;45.15;20.48;;;4.50;99.90;;;;;;5054117;28;20064;-73
2023/11/27 11:45:27;;;;;;;42.88;19.25;;;4.50;99.90;;;;;;5059638;28;20028;-74
2023/11/27 11:48:14;;;;;;;45.22;19.90;;;4.50;99.90;;;;;;5056613;28;20123;-73
2023/11/27 11:50:43;;;;;;;41.58;18.42;;;4.50;99.90;;;;;;5056681;28;20036;-72
2023/11/27 11:53:22;;;;;;;50.72;21.05;;;4.50;99.90;;;;;;5057843;28;20040;-74
2023/11/27 11:55:50;;;;;;;42.95;20.30;;;4.50;99.90;;;;;;5060656;28;20576;-74
2023/11/27 11:58:19;;;;;;;46.80;21.08;;;4.50;99.90;;;;;;5058726;28;20103;-76
2023/11/27 12:00:52;;;;;;;46.88;22.15;;;4.50;99.90;;;;;;5059124;28;20052;-75
2023/11/27 12:03:26;;;;;;;50.40;22.60;;;4.50;99.90;;;;;;5059814;28;20032;-75
2023/11/27 12:05:57;;;;;;;49.33;20.13;;;4.50;99.90;;;;;;5061656;28;20025;-72
2023/11/27 12:08:30;;;;;;;48.22;21.67;;;4.40;99.90;;;;;;5059694;28;20559;-75
2023/11/27 12:11:00;;;;;;;46.38;19.65;;;4.40;99.90;;;;;;5058988;28;20112;-75
2023/11/27 12:13:35;;;;;;;43.55;20.80;;;4.50;99.90;;;;;;5060944;28;20093;-76
2023/11/27 12:16:11;;;;;;;43.70;19.27;;;4.40;99.90;;;;;;5061494;28;21209;-74
2023/11/27 12:18:49;;;;;;;33.30;14.27;;;4.40;99.90;;;;;;5059787;28;20104;-72
2023/11/27 12:21:24;;;;;;;43.03;18.15;;;4.40;99.90;;;;;;5062002;28;20140;-74
2023/11/27 12:23:53;;;;;;;42.33;19.52;;;4.40;99.90;;;;;;5061164;28;20400;-74
2023/11/27 12:26:23;;;;;;;40.45;18.50;;;4.40;99.90;;;;;;5059723;28;20032;-72
2023/11/27 12:28:50;;;;;;;35.88;16.25;;;4.40;99.90;;;;;;5058151;28;20100;-72
2023/11/27 12:31:17;;;;;;;40.00;18.40;;;4.40;99.90;;;;;;5059396;28;20025;-72
2023/11/27 12:33:44;;;;;;;45.88;20.05;;;4.40;99.90;;;;;;5049217;28;20474;-74
2023/11/27 12:36:10;;;;;;;39.60;17.88;;;4.40;99.90;;;;;;5055023;28;20036;-72
2023/11/27 12:38:41;;;;;;;42.72;20.15;;;4.40;99.90;;;;;;5058949;28;20059;-74